Titusville, FL

3:49 PM EDT on April 28, 2015 (GMT -0400)
Royal Oak | | Change Station
CLOSE
Current Station
Personal Weather Station
Location: Titusville, FL
Elevation: 59 ft
Nearby Weather Stations

Elev 59 ft 28.58 °N, 80.83 °W | Updated 11 minutes ago

Overcast
Overcast
81.9 °F
Feels Like 87 °F
N
2.7
Wind Variable Wind from NNW

Today
High -- | Low -- °F
--% Chance of Precip.
Yesterday
High -- | Low -- °F
Precip. -- in
6:45 AM 7:56 PM
Waxing Gibbous, 76% visible
Pressure 29.74 in
Visibility 7.0 miles
Clouds Few 2500 ft
Overcast 10000 ft
Heat Index 87 °F
Dew Point 72 °F
Humidity 73%
Rainfall 0.02 in
Snow Depth Not available.
UV 4 out of 12
Pollen .10 out of 12
Air Quality Not available.
Flu Activity Local Activity
METAR KTIX 281847Z 12012KT 7SM FEW025 OVC100 25/24 A2974

More Conditions Fewer Conditions

Pressure 29.74 in
Visibility 7.0 miles
Clouds Few 2500 ft
Overcast 10000 ft
Heat Index 87 °F
Dew Point 72 °F
Humidity 73%
Rainfall 0.02 in
Snow Depth Not available.
UV 4 out of 12
Pollen .10 out of 12
Air Quality Not available.
Flu Activity Local Activity
METAR KTIX 281847Z 12012KT 7SM FEW025 OVC100 25/24 A2974

More Conditions Fewer Conditions

Nowcast | as of 2:51 PM EDT on April 28, 2015

Through dusk a few showers will affect portions of east central Florida measurable amounts of rain of a few hundredths of an inch are possible in affected areas. Additionally a few slow moving showers and storms are possible along the Volusia County coastal areas. Additional details...including graphics are available online at: http://www.Srh.NOAA.Gov/mlb/blog.Php

×

10-Day Weather Forecast

Almanac

Astronomy

Apr. 28, 2015 Rise Set
Actual Time
Civil Twilight
Nautical Twilight
Astronomical Twilight
Moon
Length of Visible Light
Length of Day
Tomorrow will be .
, % of the Moon is Illuminated

Today's Extremes

State Highs State Lows

Community

WunderPhotos

Upload Photos

1,817,741 photos uploaded!

WunderBlogs® & News

Nearby

Air Quality

  Air Quality AQ Index Pollutant
Not available.

Snow Depth

Station Depth Elevation

Earthquake Activity

City Distance Mag. Time & Date
Minimum magnitude displayed is 2.5.

Coastal Water Temperatures

Place Temperature

Stations

Nearby Weather Stations

Station Location Temp. Windchill Dew Point Humidity Wind Precip. Elev Updated Type